Time;durP1;ratioP1;P1;durP2;ratioP2;P2;SDS_P1;SDS_P2;PMS_P1;PMS_P2;Temp;Humidity;BMP_temperature;BMP_pressure;BME280_temperature;BME280_humidity;BME280_pressure;Samples;Min_cycle;Max_cycle;Signal;HPM_P1;HPM_P2
2021/12/30 00:00:08;;;;;;;50.80;8.30;;;7.80;99.90;;;;;;4979063;28;20046;-70
2021/12/30 00:02:33;;;;;;;77.05;8.57;;;7.80;99.90;;;;;;4978737;28;20125;-70
2021/12/30 00:04:59;;;;;;;59.85;8.40;;;7.80;99.90;;;;;;4978812;28;20134;-68
2021/12/30 00:07:25;;;;;;;67.57;8.63;;;7.80;99.90;;;;;;4979161;28;20046;-69
2021/12/30 00:09:50;;;;;;;62.53;8.35;;;7.80;99.90;;;;;;4999488;28;20088;-70
2021/12/30 00:12:16;;;;;;;55.75;8.35;;;7.80;99.90;;;;;;4997694;28;20050;-69
2021/12/30 00:14:42;;;;;;;56.75;8.00;;;7.80;99.90;;;;;;5015708;28;20373;-72
2021/12/30 00:17:08;;;;;;;49.10;7.60;;;7.80;99.90;;;;;;4997570;28;20077;-70
2021/12/30 00:19:33;;;;;;;61.28;7.65;;;7.80;99.90;;;;;;4998174;28;20053;-69
2021/12/30 00:21:59;;;;;;;60.45;8.60;;;7.80;99.90;;;;;;4997849;28;20496;-70
2021/12/30 00:24:25;;;;;;;60.33;8.75;;;7.80;99.90;;;;;;5015334;28;20060;-70
2021/12/30 00:26:51;;;;;;;53.47;8.43;;;7.80;99.90;;;;;;5015223;28;20089;-70
2021/12/30 00:29:16;;;;;;;56.00;7.95;;;7.80;99.90;;;;;;5015161;28;20096;-71
2021/12/30 00:31:42;;;;;;;88.70;9.68;;;7.90;99.90;;;;;;5015120;28;20357;-71
2021/12/30 00:34:07;;;;;;;67.30;8.40;;;7.90;99.90;;;;;;4997984;28;20473;-70
2021/12/30 00:36:33;;;;;;;68.80;8.15;;;7.90;99.90;;;;;;5015328;28;20046;-68
2021/12/30 00:38:59;;;;;;;77.63;10.35;;;7.90;99.90;;;;;;5015409;28;20050;-71
2021/12/30 00:41:24;;;;;;;60.97;8.38;;;7.80;99.90;;;;;;4980430;28;20524;-71
2021/12/30 00:43:50;;;;;;;65.88;8.75;;;7.80;99.90;;;;;;4995757;28;20504;-69
2021/12/30 00:46:15;;;;;;;78.60;9.02;;;7.80;99.90;;;;;;4996089;28;20446;-68
2021/12/30 00:48:41;;;;;;;69.75;9.80;;;7.80;99.90;;;;;;4982306;28;20393;-70
2021/12/30 00:51:09;;;;;;;74.93;9.07;;;7.80;99.90;;;;;;4982906;28;20043;-69
2021/12/30 00:53:35;;;;;;;86.35;9.73;;;7.80;99.90;;;;;;4981837;28;20086;-70
2021/12/30 00:56:01;;;;;;;80.15;9.10;;;7.70;99.90;;;;;;4999207;28;20485;-70
2021/12/30 00:58:26;;;;;;;84.60;9.23;;;7.70;99.90;;;;;;4981978;28;20050;-70
2021/12/30 01:00:54;;;;;;;85.45;9.77;;;7.70;99.90;;;;;;4982596;28;20125;-70
2021/12/30 01:03:20;;;;;;;83.30;8.93;;;7.60;99.90;;;;;;4998965;28;20458;-69
2021/12/30 01:05:46;;;;;;;86.97;9.63;;;7.60;99.90;;;;;;4999167;28;20050;-68
2021/12/30 01:08:12;;;;;;;77.53;8.68;;;7.60;99.90;;;;;;4981872;28;20053;-70
2021/12/30 01:10:39;;;;;;;71.47;9.32;;;7.60;99.90;;;;;;4991867;28;20053;-70
2021/12/30 01:13:07;;;;;;;80.47;9.13;;;7.50;99.90;;;;;;5001501;28;20041;-69
2021/12/30 01:15:49;;;;;;;89.05;9.15;;;7.50;99.90;;;;;;5001126;28;20042;-69
2021/12/30 01:18:25;;;;;;;77.38;8.90;;;7.40;99.90;;;;;;5018355;28;20365;-71
2021/12/30 01:20:51;;;;;;;80.50;8.77;;;7.40;99.90;;;;;;5000801;28;20058;-71
2021/12/30 01:23:18;;;;;;;77.00;9.43;;;7.40;99.90;;;;;;5001317;28;20073;-70
2021/12/30 01:25:44;;;;;;;77.93;9.48;;;7.40;99.90;;;;;;5018532;28;20085;-70
2021/12/30 01:28:10;;;;;;;82.43;9.23;;;7.40;99.90;;;;;;5000939;28;20089;-74
2021/12/30 01:30:35;;;;;;;63.42;8.23;;;7.30;99.90;;;;;;5018103;28;20046;-71
2021/12/30 01:33:01;;;;;;;85.50;9.70;;;7.40;99.90;;;;;;5001016;28;20054;-70
2021/12/30 01:35:27;;;;;;;109.95;10.38;;;7.30;99.90;;;;;;5000778;28;20128;-70
2021/12/30 01:37:56;;;;;;;82.00;9.75;;;7.30;99.90;;;;;;5001036;28;20141;-71
2021/12/30 01:40:22;;;;;;;82.15;9.10;;;7.30;99.90;;;;;;4992639;28;20050;-70
2021/12/30 01:42:49;;;;;;;87.45;9.32;;;7.30;99.90;;;;;;4998867;28;20046;-72
2021/12/30 01:45:15;;;;;;;96.22;10.20;;;7.20;99.90;;;;;;4998402;28;20058;-71
2021/12/30 01:47:49;;;;;;;75.15;9.60;;;7.20;99.90;;;;;;4997482;28;20050;-69
2021/12/30 01:50:15;;;;;;;70.00;9.40;;;7.20;99.90;;;;;;4980668;28;20476;-68
2021/12/30 01:52:41;;;;;;;81.88;9.70;;;7.20;99.90;;;;;;4998122;28;20050;-68
2021/12/30 01:55:08;;;;;;;84.28;10.30;;;7.20;99.90;;;;;;4989354;28;20042;-69
2021/12/30 01:57:34;;;;;;;90.45;10.02;;;7.20;99.90;;;;;;5017415;28;20053;-69
2021/12/30 02:00:00;;;;;;;79.88;9.70;;;7.20;99.90;;;;;;5000822;28;20133;-71
2021/12/30 02:02:25;;;;;;;83.32;10.05;;;7.20;99.90;;;;;;5000485;28;20046;-69
2021/12/30 02:04:52;;;;;;;63.90;8.90;;;7.20;99.90;;;;;;5017554;28;20060;-73
2021/12/30 02:07:18;;;;;;;83.47;9.52;;;7.20;99.90;;;;;;5017709;28;20053;-70
2021/12/30 02:09:44;;;;;;;90.38;9.38;;;7.20;99.90;;;;;;5013974;28;20204;-69
2021/12/30 02:12:10;;;;;;;76.55;10.13;;;7.20;99.90;;;;;;4981392;28;20485;-69
2021/12/30 02:14:36;;;;;;;88.50;8.90;;;7.20;99.90;;;;;;4980671;28;20046;-69
2021/12/30 02:17:04;;;;;;;74.75;9.43;;;7.20;99.90;;;;;;4980715;28;20070;-69
2021/12/30 02:19:31;;;;;;;57.60;8.93;;;7.20;99.90;;;;;;4997659;28;20053;-69
2021/12/30 02:21:56;;;;;;;71.18;8.93;;;7.30;99.90;;;;;;4997943;28;20066;-71
2021/12/30 02:24:22;;;;;;;81.95;9.27;;;7.30;99.90;;;;;;4980998;28;20050;-69
2021/12/30 02:26:48;;;;;;;63.15;9.18;;;7.30;99.90;;;;;;4980741;28;20054;-70
2021/12/30 02:29:13;;;;;;;63.95;8.35;;;7.30;99.90;;;;;;4980710;28;20051;-72
2021/12/30 02:31:40;;;;;;;69.97;8.80;;;7.30;99.90;;;;;;4997305;28;20141;-69
2021/12/30 02:34:06;;;;;;;70.28;8.73;;;7.30;99.90;;;;;;4980196;28;20146;-70
2021/12/30 02:36:37;;;;;;;74.80;9.05;;;7.30;99.90;;;;;;4980018;28;20046;-69
2021/12/30 02:39:06;;;;;;;61.70;9.65;;;7.20;99.90;;;;;;4980021;28;20470;-68
2021/12/30 02:41:34;;;;;;;93.05;9.65;;;7.20;99.90;;;;;;4996658;28;20054;-69
2021/12/30 02:44:00;;;;;;;67.80;9.30;;;7.20;99.90;;;;;;4997892;28;20054;-68
2021/12/30 02:46:30;;;;;;;68.78;9.80;;;7.20;99.90;;;;;;4999781;28;20057;-69
2021/12/30 02:48:56;;;;;;;83.63;9.80;;;7.20;99.90;;;;;;5016812;28;20316;-70
2021/12/30 02:51:23;;;;;;;94.82;9.73;;;7.20;99.90;;;;;;5016716;28;20347;-70
2021/12/30 02:53:49;;;;;;;73.72;8.50;;;7.20;99.90;;;;;;5016719;28;20041;-69
2021/12/30 02:56:15;;;;;;;79.63;9.40;;;7.20;99.90;;;;;;5016772;28;20038;-68
2021/12/30 02:58:40;;;;;;;80.15;11.25;;;7.20;99.90;;;;;;5016832;28;20128;-69
2021/12/30 03:01:19;;;;;;;79.93;11.00;;;7.20;99.90;;;;;;5016922;28;20192;-71
2021/12/30 03:03:44;;;;;;;79.50;11.18;;;7.30;99.90;;;;;;5016381;28;20045;-69
2021/12/30 03:06:12;;;;;;;75.53;11.63;;;7.30;99.90;;;;;;5016169;28;20420;-70
2021/12/30 03:08:39;;;;;;;80.35;12.15;;;7.30;99.90;;;;;;5016460;28;20068;-71
2021/12/30 03:11:05;;;;;;;93.97;11.95;;;7.30;99.90;;;;;;5003131;28;20537;-70
2021/12/30 03:13:33;;;;;;;88.78;12.40;;;7.40;99.90;;;;;;4996861;28;20050;-71
2021/12/30 03:16:04;;;;;;;103.05;13.40;;;7.40;99.90;;;;;;4996899;28;20050;-70
2021/12/30 03:18:34;;;;;;;86.28;13.20;;;7.40;99.90;;;;;;4979057;28;20062;-70
2021/12/30 03:21:02;;;;;;;79.70;12.82;;;7.50;99.90;;;;;;4996720;28;20097;-69
2021/12/30 03:23:27;;;;;;;92.40;14.02;;;7.60;99.90;;;;;;4996693;28;20054;-70
2021/12/30 03:25:53;;;;;;;96.93;15.23;;;7.60;99.90;;;;;;4996553;28;20054;-69
2021/12/30 03:28:19;;;;;;;86.38;15.00;;;7.60;99.90;;;;;;4979064;28;20172;-69
2021/12/30 03:30:45;;;;;;;93.90;16.13;;;7.60;99.90;;;;;;4995551;28;20479;-68
2021/12/30 03:33:10;;;;;;;114.85;16.60;;;7.70;99.90;;;;;;4996429;28;20085;-70
2021/12/30 03:35:37;;;;;;;105.95;17.85;;;7.70;99.90;;;;;;4979382;28;20058;-69
2021/12/30 03:38:03;;;;;;;125.65;18.55;;;7.70;99.90;;;;;;5000220;28;20125;-70
2021/12/30 03:40:29;;;;;;;99.70;17.17;;;7.70;99.90;;;;;;5015850;28;20064;-71
2021/12/30 03:42:54;;;;;;;98.20;17.92;;;7.70;99.90;;;;;;5015790;28;20513;-70
2021/12/30 03:45:21;;;;;;;109.95;19.83;;;7.80;99.90;;;;;;5015856;28;20370;-70
2021/12/30 03:47:49;;;;;;;109.35;17.92;;;7.80;99.90;;;;;;4982510;28;20129;-70
2021/12/30 03:50:22;;;;;;;110.05;18.83;;;7.90;99.90;;;;;;4995780;28;20116;-69
2021/12/30 03:52:54;;;;;;;118.55;20.02;;;7.90;99.90;;;;;;4995429;28;20085;-70
2021/12/30 03:55:22;;;;;;;123.80;19.92;;;8.00;99.90;;;;;;4996306;28;20065;-69
2021/12/30 03:57:49;;;;;;;141.25;21.60;;;7.90;99.90;;;;;;4995090;28;20042;-71
2021/12/30 04:00:15;;;;;;;118.57;21.67;;;8.00;99.90;;;;;;4995884;28;20081;-68
2021/12/30 04:02:41;;;;;;;127.78;22.58;;;8.00;99.90;;;;;;4979111;28;20120;-70
2021/12/30 04:05:08;;;;;;;113.30;22.60;;;7.90;99.90;;;;;;4996259;28;20438;-68
2021/12/30 04:07:34;;;;;;;143.07;23.02;;;7.90;99.90;;;;;;4996080;28;20113;-68
2021/12/30 04:09:59;;;;;;;118.40;21.20;;;7.90;99.90;;;;;;4997925;28;20084;-71
2021/12/30 04:12:25;;;;;;;116.90;22.42;;;8.00;99.90;;;;;;4998022;28;20046;-71
2021/12/30 04:14:51;;;;;;;131.05;22.35;;;8.00;99.90;;;;;;4998840;28;20082;-70
2021/12/30 04:17:16;;;;;;;131.45;22.38;;;8.00;99.90;;;;;;4998607;28;20370;-69
2021/12/30 04:19:42;;;;;;;134.82;23.77;;;8.10;99.90;;;;;;5015037;28;20155;-69
2021/12/30 04:22:07;;;;;;;132.57;24.20;;;8.10;99.90;;;;;;4997076;28;20060;-70
2021/12/30 04:24:34;;;;;;;140.23;22.90;;;8.10;99.90;;;;;;4998088;28;20063;-70
2021/12/30 04:26:59;;;;;;;163.27;24.80;;;8.10;99.90;;;;;;4997736;28;20058;-70
2021/12/30 04:29:25;;;;;;;132.75;23.23;;;8.10;99.90;;;;;;4998359;28;20056;-71
2021/12/30 04:31:51;;;;;;;121.43;22.30;;;8.20;99.90;;;;;;5015463;28;20042;-70
2021/12/30 04:34:16;;;;;;;142.75;23.15;;;8.20;99.90;;;;;;4998384;28;20125;-69
2021/12/30 04:36:42;;;;;;;119.38;22.35;;;8.20;99.90;;;;;;5015829;28;20430;-69
2021/12/30 04:39:08;;;;;;;116.63;21.85;;;8.20;99.90;;;;;;4984873;28;20054;-69
2021/12/30 04:41:34;;;;;;;120.05;20.70;;;8.30;99.90;;;;;;4978093;28;20047;-70
2021/12/30 04:44:00;;;;;;;108.20;21.48;;;8.30;99.90;;;;;;4994992;28;20441;-69
2021/12/30 04:46:25;;;;;;;109.50;20.40;;;8.30;99.90;;;;;;4978554;28;20425;-71
2021/12/30 04:48:51;;;;;;;133.02;22.75;;;8.40;99.90;;;;;;4994963;28;20046;-70
2021/12/30 04:51:17;;;;;;;131.00;22.33;;;8.40;99.90;;;;;;4995765;28;20097;-70
2021/12/30 04:53:44;;;;;;;112.88;20.77;;;8.50;99.90;;;;;;4995370;28;20043;-73
2021/12/30 04:56:11;;;;;;;127.57;22.90;;;8.50;99.90;;;;;;4995294;28;20049;-70
2021/12/30 04:58:36;;;;;;;148.57;25.40;;;8.60;99.90;;;;;;4995272;28;20446;-70
2021/12/30 05:01:03;;;;;;;149.10;25.77;;;8.70;99.90;;;;;;4995159;28;20053;-72
2021/12/30 05:03:28;;;;;;;158.40;26.45;;;8.80;99.90;;;;;;4978653;28;20065;-70
2021/12/30 05:05:55;;;;;;;143.05;27.45;;;8.80;99.90;;;;;;4995428;28;20392;-70
2021/12/30 05:08:26;;;;;;;158.27;26.10;;;8.90;99.90;;;;;;4984147;28;20085;-69
2021/12/30 05:10:52;;;;;;;148.43;25.45;;;8.90;99.90;;;;;;5013531;28;20047;-70
2021/12/30 05:13:18;;;;;;;146.93;28.58;;;9.00;99.90;;;;;;5014402;28;20442;-70
2021/12/30 05:15:47;;;;;;;153.35;27.55;;;9.00;99.90;;;;;;5015158;28;20053;-69
2021/12/30 05:18:14;;;;;;;140.00;25.77;;;9.10;99.90;;;;;;5014732;28;20049;-69
2021/12/30 05:20:40;;;;;;;128.57;26.23;;;9.10;99.90;;;;;;4997029;28;20375;-68
2021/12/30 05:23:06;;;;;;;131.52;26.15;;;9.30;99.90;;;;;;4997404;28;20129;-68
2021/12/30 05:25:33;;;;;;;157.10;26.42;;;9.30;99.90;;;;;;4997797;28;20045;-72
2021/12/30 05:27:59;;;;;;;111.38;23.67;;;9.30;99.90;;;;;;5014620;28;20053;-68
2021/12/30 05:30:25;;;;;;;130.15;23.67;;;9.40;99.90;;;;;;4997483;28;20468;-69
2021/12/30 05:32:53;;;;;;;115.82;24.05;;;9.40;99.90;;;;;;5015764;28;20042;-69
2021/12/30 05:35:20;;;;;;;121.97;24.20;;;9.50;99.90;;;;;;5001024;28;20490;-71
2021/12/30 05:37:46;;;;;;;129.57;23.75;;;9.40;99.90;;;;;;5014027;28;20034;-70
2021/12/30 05:40:15;;;;;;;120.95;21.83;;;9.50;99.90;;;;;;4997095;28;20097;-70
2021/12/30 05:42:41;;;;;;;109.78;22.65;;;9.50;99.90;;;;;;4997476;28;20073;-72
2021/12/30 05:45:07;;;;;;;103.50;22.30;;;9.60;99.90;;;;;;4998874;28;20058;-69
2021/12/30 05:47:33;;;;;;;98.78;20.33;;;9.60;99.90;;;;;;4998561;28;20455;-69
2021/12/30 05:50:01;;;;;;;90.57;19.77;;;9.60;99.90;;;;;;4997643;28;20056;-70
2021/12/30 05:52:27;;;;;;;77.32;18.02;;;9.70;99.90;;;;;;4997332;28;20050;-70
2021/12/30 05:54:53;;;;;;;95.63;20.23;;;9.70;99.90;;;;;;4997529;28;20061;-69
2021/12/30 05:57:18;;;;;;;108.35;19.95;;;9.70;99.90;;;;;;4998032;28;20057;-70
2021/12/30 05:59:44;;;;;;;69.20;16.55;;;9.70;99.90;;;;;;4997362;28;20066;-72
2021/12/30 06:02:09;;;;;;;67.97;16.98;;;9.80;99.90;;;;;;4998468;28;20537;-69
2021/12/30 06:04:35;;;;;;;77.95;17.15;;;9.80;99.90;;;;;;4997361;28;20473;-70
2021/12/30 06:07:00;;;;;;;53.97;15.98;;;9.80;99.90;;;;;;4997042;28;20049;-69
2021/12/30 06:09:26;;;;;;;59.63;16.30;;;9.90;99.90;;;;;;4999575;28;20046;-70
2021/12/30 06:11:52;;;;;;;71.90;17.08;;;9.80;99.90;;;;;;5000335;28;20053;-68
2021/12/30 06:14:18;;;;;;;58.97;16.30;;;9.90;99.90;;;;;;5000183;28;20064;-69
2021/12/30 06:16:44;;;;;;;61.22;17.15;;;9.90;99.90;;;;;;5000230;28;20140;-69
2021/12/30 06:19:09;;;;;;;77.10;18.40;;;10.00;99.90;;;;;;5000161;28;20058;-71
2021/12/30 06:21:35;;;;;;;68.15;17.85;;;9.90;99.90;;;;;;4999569;28;20053;-71
2021/12/30 06:24:01;;;;;;;66.85;18.50;;;10.00;99.90;;;;;;5016940;28;20049;-71
2021/12/30 06:26:26;;;;;;;81.38;18.92;;;10.00;99.90;;;;;;5017396;28;20049;-69
2021/12/30 06:28:52;;;;;;;81.45;19.48;;;10.00;99.90;;;;;;4983994;28;20369;-71
2021/12/30 06:31:17;;;;;;;82.82;20.02;;;10.00;99.90;;;;;;5000098;28;20474;-71
2021/12/30 06:33:43;;;;;;;121.90;23.15;;;10.00;99.90;;;;;;5017152;28;20180;-70
2021/12/30 06:36:10;;;;;;;104.68;23.38;;;10.00;99.90;;;;;;4998827;28;20064;-69
2021/12/30 06:38:35;;;;;;;136.15;24.85;;;10.00;99.90;;;;;;5015210;28;20069;-69
2021/12/30 06:41:01;;;;;;;145.30;26.50;;;10.00;99.90;;;;;;5010950;28;20042;-72
2021/12/30 06:43:27;;;;;;;112.35;24.42;;;10.10;99.90;;;;;;4998288;28;20125;-70
2021/12/30 06:45:52;;;;;;;132.82;26.10;;;10.10;99.90;;;;;;4995499;28;20170;-72
2021/12/30 06:48:18;;;;;;;182.45;28.42;;;10.10;99.90;;;;;;4998603;28;20378;-69
2021/12/30 06:50:52;;;;;;;119.07;25.38;;;10.10;99.90;;;;;;4999337;28;20053;-69
2021/12/30 06:53:19;;;;;;;169.48;27.33;;;10.10;99.90;;;;;;4998945;28;20050;-69
2021/12/30 06:55:46;;;;;;;169.88;27.65;;;10.20;99.90;;;;;;4999539;28;20054;-70
2021/12/30 06:58:12;;;;;;;143.20;27.13;;;10.20;99.90;;;;;;5016416;28;20128;-68
2021/12/30 07:00:38;;;;;;;121.80;24.38;;;10.30;99.90;;;;;;4998749;28;20126;-70
2021/12/30 07:03:03;;;;;;;149.63;26.35;;;10.40;99.90;;;;;;4999151;28;20050;-69
2021/12/30 07:05:29;;;;;;;161.32;26.15;;;10.40;99.90;;;;;;5016012;28;20483;-71
2021/12/30 07:07:54;;;;;;;109.65;22.88;;;10.40;99.90;;;;;;4997557;28;20049;-71
2021/12/30 07:10:24;;;;;;;102.50;22.15;;;10.40;99.90;;;;;;5016579;28;20458;-68
2021/12/30 07:12:49;;;;;;;125.32;22.17;;;10.40;99.90;;;;;;4999639;28;20050;-69
2021/12/30 07:15:15;;;;;;;113.80;22.00;;;10.40;99.90;;;;;;5015715;28;20040;-70
2021/12/30 07:17:41;;;;;;;84.60;20.13;;;10.40;99.90;;;;;;5032176;28;20053;-71
2021/12/30 07:20:08;;;;;;;128.70;23.13;;;10.50;99.90;;;;;;5017798;28;20378;-70
2021/12/30 07:22:34;;;;;;;81.60;19.42;;;10.50;99.90;;;;;;5018530;28;20045;-70
2021/12/30 07:25:00;;;;;;;86.85;20.08;;;10.50;99.90;;;;;;5036027;28;20098;-69
2021/12/30 07:27:26;;;;;;;96.20;19.55;;;10.60;99.90;;;;;;5035690;28;20048;-70
2021/12/30 07:29:52;;;;;;;67.63;16.75;;;10.60;99.90;;;;;;5018474;28;20200;-70
2021/12/30 07:32:18;;;;;;;80.55;17.40;;;10.60;99.90;;;;;;5025353;28;20050;-70
2021/12/30 07:34:44;;;;;;;99.13;17.95;;;10.60;99.90;;;;;;4989866;28;20081;-70
2021/12/30 07:37:14;;;;;;;84.45;18.20;;;10.60;99.90;;;;;;4995103;28;20089;-71
2021/12/30 07:39:43;;;;;;;71.68;16.15;;;10.70;99.90;;;;;;5015404;28;20061;-69
2021/12/30 07:42:08;;;;;;;58.33;14.75;;;10.60;99.90;;;;;;5015383;28;20058;-70
2021/12/30 07:44:34;;;;;;;69.50;15.90;;;10.70;99.90;;;;;;4996096;28;20072;-69
2021/12/30 07:47:00;;;;;;;57.95;14.02;;;10.70;99.90;;;;;;5012455;28;20050;-69
2021/12/30 07:49:25;;;;;;;62.10;14.20;;;10.70;99.90;;;;;;5012279;28;20145;-70
2021/12/30 07:51:51;;;;;;;57.10;13.63;;;10.70;99.90;;;;;;4980214;28;20061;-70
2021/12/30 07:54:17;;;;;;;64.95;13.38;;;10.70;99.90;;;;;;5013741;28;20482;-70
2021/12/30 07:56:42;;;;;;;54.03;12.23;;;10.70;99.90;;;;;;4997597;28;20117;-71
2021/12/30 07:59:08;;;;;;;42.08;11.27;;;10.80;99.90;;;;;;5004960;28;20045;-73
2021/12/30 08:01:33;;;;;;;50.85;11.68;;;10.80;99.90;;;;;;5014800;28;20045;-68
2021/12/30 08:03:59;;;;;;;42.95;10.25;;;10.80;99.90;;;;;;4997964;28;20058;-71
2021/12/30 08:06:27;;;;;;;40.65;9.85;;;10.90;99.90;;;;;;5015159;28;20137;-71
2021/12/30 08:08:53;;;;;;;27.88;8.45;;;10.90;99.90;;;;;;4998199;28;20042;-71
2021/12/30 08:11:19;;;;;;;23.45;7.00;;;10.90;99.90;;;;;;5014739;28;20168;-70
2021/12/30 08:13:45;;;;;;;22.83;6.80;;;10.90;99.90;;;;;;4981912;28;20106;-71
2021/12/30 08:16:12;;;;;;;25.77;7.00;;;10.90;99.90;;;;;;4994638;28;20458;-72
2021/12/30 08:18:37;;;;;;;19.98;6.15;;;11.00;99.90;;;;;;5014863;28;20370;-70
2021/12/30 08:21:03;;;;;;;23.48;5.63;;;11.00;99.90;;;;;;5014808;28;20054;-74
2021/12/30 08:23:28;;;;;;;14.85;5.63;;;11.10;99.90;;;;;;4997969;28;20598;-71
2021/12/30 08:25:54;;;;;;;15.35;5.30;;;11.10;99.90;;;;;;5015067;28;20061;-70
2021/12/30 08:28:21;;;;;;;12.43;4.90;;;11.00;99.90;;;;;;5014627;28;20053;-72
2021/12/30 08:30:46;;;;;;;15.73;4.57;;;11.10;99.90;;;;;;4996567;28;20043;-72
2021/12/30 08:33:12;;;;;;;10.65;4.13;;;11.10;99.90;;;;;;4997079;28;20192;-71
2021/12/30 08:35:38;;;;;;;13.23;4.28;;;11.10;99.90;;;;;;5014836;28;20049;-71
2021/12/30 08:38:03;;;;;;;11.57;4.00;;;11.20;99.90;;;;;;5012124;28;20088;-69
2021/12/30 08:40:30;;;;;;;10.35;3.92;;;11.20;99.90;;;;;;5034593;28;20049;-70
2021/12/30 08:42:56;;;;;;;9.85;3.58;;;11.20;99.90;;;;;;5027239;28;20053;-69
2021/12/30 08:45:22;;;;;;;7.72;3.70;;;11.20;99.90;;;;;;5003214;28;20053;-70
2021/12/30 08:47:47;;;;;;;13.25;4.03;;;11.20;99.90;;;;;;5013582;28;20037;-73
2021/12/30 08:50:16;;;;;;;11.55;4.78;;;11.20;99.90;;;;;;5012223;28;20391;-69
2021/12/30 08:52:43;;;;;;;14.65;6.13;;;11.20;99.90;;;;;;5011183;28;20060;-70
2021/12/30 08:55:09;;;;;;;17.83;6.82;;;11.30;99.90;;;;;;5023878;28;20059;-73
2021/12/30 08:57:38;;;;;;;16.42;6.47;;;11.30;99.90;;;;;;5034720;28;20084;-69
2021/12/30 09:00:09;;;;;;;16.15;7.30;;;11.30;99.90;;;;;;5017112;28;20077;-69
2021/12/30 09:02:34;;;;;;;20.27;7.82;;;11.30;99.90;;;;;;5022405;28;20054;-70
2021/12/30 09:05:00;;;;;;;20.08;9.30;;;11.40;99.90;;;;;;4977197;28;20117;-73
2021/12/30 09:07:25;;;;;;;23.80;10.40;;;11.40;99.90;;;;;;5009771;28;20136;-71
2021/12/30 09:09:51;;;;;;;29.40;11.05;;;11.40;99.90;;;;;;5017676;28;20382;-70
2021/12/30 09:12:18;;;;;;;30.15;12.90;;;11.50;99.90;;;;;;5017765;28;20389;-70
2021/12/30 09:14:43;;;;;;;29.75;13.20;;;11.40;99.90;;;;;;5017537;28;20038;-69
2021/12/30 09:17:09;;;;;;;32.63;13.65;;;11.40;99.90;;;;;;5017649;28;20060;-69
2021/12/30 09:19:34;;;;;;;31.35;13.18;;;11.50;99.90;;;;;;5000477;28;20076;-70
2021/12/30 09:22:00;;;;;;;29.67;13.00;;;11.50;99.90;;;;;;5017628;28;20060;-70
2021/12/30 09:24:26;;;;;;;39.92;13.00;;;11.50;99.90;;;;;;5007887;28;20147;-70
2021/12/30 09:26:51;;;;;;;31.50;12.98;;;11.50;99.90;;;;;;5026288;28;20046;-69
2021/12/30 09:29:17;;;;;;;30.77;10.57;;;11.50;99.90;;;;;;4997103;28;20064;-69
2021/12/30 09:31:46;;;;;;;25.77;10.48;;;11.50;99.90;;;;;;4998102;28;20081;-70
2021/12/30 09:34:12;;;;;;;29.80;9.93;;;11.50;99.90;;;;;;5017579;28;20097;-72
2021/12/30 09:36:39;;;;;;;20.95;8.45;;;11.50;99.90;;;;;;5017202;28;20179;-70
2021/12/30 09:39:11;;;;;;;25.92;9.25;;;11.50;99.90;;;;;;4995618;28;20048;-69
2021/12/30 09:41:39;;;;;;;21.52;7.80;;;11.60;99.90;;;;;;5011192;28;20045;-70
2021/12/30 09:44:07;;;;;;;23.85;7.45;;;11.60;99.90;;;;;;5001970;28;20046;-70
2021/12/30 09:46:34;;;;;;;21.67;8.52;;;11.60;99.90;;;;;;5014229;28;20045;-68
2021/12/30 09:49:00;;;;;;;28.17;10.35;;;11.60;99.90;;;;;;5014125;28;20382;-70
2021/12/30 09:51:25;;;;;;;35.70;11.48;;;11.60;99.90;;;;;;5032750;28;20377;-68
2021/12/30 09:53:51;;;;;;;29.08;9.93;;;11.60;99.90;;;;;;5026985;28;20050;-69
2021/12/30 09:56:19;;;;;;;32.47;11.65;;;11.70;99.90;;;;;;5007808;28;20425;-69
2021/12/30 09:58:45;;;;;;;37.63;11.98;;;11.70;99.90;;;;;;5000026;28;20049;-67
2021/12/30 10:01:11;;;;;;;27.23;12.07;;;11.70;99.90;;;;;;5017118;28;20076;-69
2021/12/30 10:03:37;;;;;;;35.15;13.60;;;11.70;99.90;;;;;;5000406;28;20450;-69
2021/12/30 10:06:12;;;;;;;31.10;11.65;;;11.70;99.90;;;;;;4999982;28;20057;-69
2021/12/30 10:08:42;;;;;;;30.13;12.75;;;11.70;99.90;;;;;;5000485;28;20425;-69
2021/12/30 10:11:14;;;;;;;38.80;12.48;;;11.70;99.90;;;;;;4999951;28;20045;-72
2021/12/30 10:13:51;;;;;;;39.47;13.13;;;11.70;99.90;;;;;;5016955;28;20054;-71
2021/12/30 10:16:17;;;;;;;42.10;13.57;;;11.70;99.90;;;;;;4999584;28;20072;-69
2021/12/30 10:18:57;;;;;;;36.33;11.35;;;11.70;99.90;;;;;;5016081;28;20050;-70
2021/12/30 10:21:27;;;;;;;38.50;11.38;;;11.70;99.90;;;;;;4998913;28;20061;-70
2021/12/30 10:23:59;;;;;;;27.65;10.48;;;11.70;99.90;;;;;;5016948;28;20099;-71
2021/12/30 10:26:26;;;;;;;36.95;10.93;;;11.70;99.90;;;;;;5016519;28;20046;-74
2021/12/30 10:28:59;;;;;;;32.13;10.73;;;11.70;99.90;;;;;;5016917;28;20113;-71
2021/12/30 10:31:27;;;;;;;32.50;10.38;;;11.70;99.90;;;;;;4999676;28;20100;-71
2021/12/30 10:34:04;;;;;;;31.13;10.23;;;11.70;99.90;;;;;;4999239;28;20060;-71
2021/12/30 10:36:45;;;;;;;29.30;10.23;;;11.70;99.90;;;;;;5016661;28;20100;-69
2021/12/30 10:39:24;;;;;;;40.22;10.68;;;11.70;99.90;;;;;;5017084;28;20081;-71
2021/12/30 10:41:52;;;;;;;36.33;10.80;;;11.70;99.90;;;;;;4999372;28;20054;-70
2021/12/30 10:44:18;;;;;;;36.05;10.20;;;11.60;99.90;;;;;;5015573;28;20053;-72
2021/12/30 10:46:46;;;;;;;41.50;10.90;;;11.60;99.90;;;;;;4999225;28;20046;-70
2021/12/30 10:49:25;;;;;;;32.40;9.93;;;11.70;99.90;;;;;;4999669;28;20348;-68
2021/12/30 10:51:52;;;;;;;37.70;10.75;;;11.60;99.90;;;;;;4983334;28;20065;-71
2021/12/30 10:54:25;;;;;;;47.40;11.90;;;11.60;99.90;;;;;;4999403;28;20049;-71
2021/12/30 10:57:01;;;;;;;42.13;11.55;;;11.70;99.90;;;;;;4998287;28;20060;-68
2021/12/30 10:59:29;;;;;;;37.65;11.40;;;11.60;99.90;;;;;;5015079;28;20382;-70
2021/12/30 11:02:08;;;;;;;45.63;10.57;;;11.70;99.90;;;;;;5005230;28;20054;-69
2021/12/30 11:04:49;;;;;;;41.78;11.43;;;11.70;99.90;;;;;;4998760;28;20050;-69
2021/12/30 11:07:18;;;;;;;41.17;10.57;;;11.70;99.90;;;;;;4998549;28;20042;-69
2021/12/30 11:09:48;;;;;;;43.22;11.57;;;11.70;99.90;;;;;;4998631;28;20050;-70
2021/12/30 11:12:14;;;;;;;41.67;10.15;;;11.70;99.90;;;;;;5016299;28;20096;-70
2021/12/30 11:14:41;;;;;;;38.10;9.98;;;11.70;99.90;;;;;;4998519;28;20077;-71
2021/12/30 11:17:17;;;;;;;44.67;10.07;;;11.70;99.90;;;;;;4998804;28;20057;-71
2021/12/30 11:19:51;;;;;;;49.88;10.80;;;11.70;99.90;;;;;;4998373;28;20053;-70
2021/12/30 11:22:22;;;;;;;62.20;11.30;;;11.70;99.90;;;;;;5015913;28;20485;-69
2021/12/30 11:24:49;;;;;;;61.78;11.35;;;11.60;99.90;;;;;;5015763;28;20111;-70
2021/12/30 11:27:17;;;;;;;52.83;10.90;;;11.70;99.90;;;;;;4998754;28;20064;-69
2021/12/30 11:29:45;;;;;;;62.63;10.40;;;11.70;99.90;;;;;;4998576;28;20065;-69
2021/12/30 11:32:15;;;;;;;43.55;9.43;;;11.70;99.90;;;;;;4995199;28;20049;-70
2021/12/30 11:34:41;;;;;;;59.60;9.88;;;11.70;99.90;;;;;;5010937;28;20411;-70
2021/12/30 11:37:08;;;;;;;57.70;11.13;;;11.70;99.90;;;;;;5018591;28;20112;-73
2021/12/30 11:39:33;;;;;;;57.45;11.13;;;11.70;99.90;;;;;;4998089;28;20057;-71
2021/12/30 11:42:10;;;;;;;69.40;11.27;;;11.70;99.90;;;;;;4997916;28;20057;-70
2021/12/30 11:44:47;;;;;;;54.10;11.00;;;11.70;99.90;;;;;;5015744;28;20073;-70
2021/12/30 11:47:42;;;;;;;69.03;10.80;;;11.80;99.90;;;;;;5012975;28;20493;-69
2021/12/30 11:50:26;;;;;;;58.80;10.45;;;11.70;99.90;;;;;;4985509;28;20062;-70
2021/12/30 11:53:12;;;;;;;51.65;10.18;;;11.70;99.90;;;;;;5015003;28;20053;-70
2021/12/30 11:55:57;;;;;;;52.88;10.25;;;11.70;99.90;;;;;;5006804;28;20125;-71
2021/12/30 11:58:29;;;;;;;55.75;11.32;;;11.70;99.90;;;;;;4997300;28;20049;-70
2021/12/30 12:01:12;;;;;;;53.85;10.43;;;11.70;99.90;;;;;;4998337;28;20041;-70
2021/12/30 12:03:43;;;;;;;57.60;10.10;;;11.70;99.90;;;;;;4997986;28;20474;-70
2021/12/30 12:06:24;;;;;;;59.25;10.65;;;11.70;99.90;;;;;;5015195;28;20161;-70
2021/12/30 12:08:51;;;;;;;50.65;10.60;;;11.80;99.90;;;;;;5014974;28;20128;-72
2021/12/30 12:11:20;;;;;;;59.35;9.55;;;11.80;99.90;;;;;;4998020;28;20132;-70
2021/12/30 12:13:47;;;;;;;54.20;10.10;;;11.80;99.90;;;;;;4998003;28;20050;-69
2021/12/30 12:16:33;;;;;;;42.85;9.88;;;11.80;99.90;;;;;;5014966;28;20084;-68
2021/12/30 12:19:05;;;;;;;52.42;10.05;;;11.90;99.90;;;;;;5013979;28;20393;-69
2021/12/30 12:21:42;;;;;;;57.08;10.75;;;11.90;99.90;;;;;;4997486;28;20061;-69
2021/12/30 12:24:27;;;;;;;46.50;9.60;;;11.90;99.90;;;;;;4997607;28;20050;-70
2021/12/30 12:26:56;;;;;;;45.13;10.18;;;11.90;99.90;;;;;;5014813;28;20057;-70
2021/12/30 12:29:50;;;;;;;52.90;10.00;;;11.90;99.90;;;;;;4997812;28;20060;-70
2021/12/30 12:32:34;;;;;;;54.00;10.30;;;11.90;99.90;;;;;;5012704;28;20065;-69
2021/12/30 12:35:05;;;;;;;41.95;9.52;;;11.90;99.90;;;;;;4997042;28;20108;-69